sensor_id;sensor_type;location;lat;lon;timestamp;temperature;humidity
37240;DHT22;23130;48.760;9.178;2022-12-18T00:01:36;-8.40;99.90
37240;DHT22;23130;48.760;9.178;2022-12-18T00:04:04;-8.50;99.90
37240;DHT22;23130;48.760;9.178;2022-12-18T00:06:30;-8.50;99.90
37240;DHT22;23130;48.760;9.178;2022-12-18T00:08:58;-8.50;99.90
37240;DHT22;23130;48.760;9.178;2022-12-18T00:11:27;-8.60;99.90
37240;DHT22;23130;48.760;9.178;2022-12-18T00:13:54;-8.60;99.90
37240;DHT22;23130;48.760;9.178;2022-12-18T00:16:22;-8.60;99.90
37240;DHT22;23130;48.760;9.178;2022-12-18T00:18:53;-8.60;99.90
37240;DHT22;23130;48.760;9.178;2022-12-18T00:21:20;-8.60;99.90
37240;DHT22;23130;48.760;9.178;2022-12-18T00:23:47;-8.60;99.90
37240;DHT22;23130;48.760;9.178;2022-12-18T00:26:19;-8.70;99.90
37240;DHT22;23130;48.760;9.178;2022-12-18T00:28:45;-8.80;99.90
37240;DHT22;23130;48.760;9.178;2022-12-18T00:31:14;-8.80;99.90
37240;DHT22;23130;48.760;9.178;2022-12-18T00:33:40;-8.90;99.90
37240;DHT22;23130;48.760;9.178;2022-12-18T00:36:27;-8.90;99.90
37240;DHT22;23130;48.760;9.178;2022-12-18T00:38:57;-9.00;99.90
37240;DHT22;23130;48.760;9.178;2022-12-18T00:41:24;-9.00;99.90
37240;DHT22;23130;48.760;9.178;2022-12-18T00:44:10;-9.00;99.90
37240;DHT22;23130;48.760;9.178;2022-12-18T00:46:37;-9.00;99.90
37240;DHT22;23130;48.760;9.178;2022-12-18T00:49:03;-9.10;99.90
37240;DHT22;23130;48.760;9.178;2022-12-18T00:51:28;-9.10;99.90
37240;DHT22;23130;48.760;9.178;2022-12-18T00:53:54;-9.20;99.90
37240;DHT22;23130;48.760;9.178;2022-12-18T00:56:20;-9.20;99.90
37240;DHT22;23130;48.760;9.178;2022-12-18T00:58:46;-9.10;99.90
37240;DHT22;23130;48.760;9.178;2022-12-18T01:01:12;-9.00;99.90
37240;DHT22;23130;48.760;9.178;2022-12-18T01:03:38;-8.70;99.90
37240;DHT22;23130;48.760;9.178;2022-12-18T01:06:11;-8.60;99.90
37240;DHT22;23130;48.760;9.178;2022-12-18T01:08:37;-8.40;99.90
37240;DHT22;23130;48.760;9.178;2022-12-18T01:11:12;-8.30;99.90
37240;DHT22;23130;48.760;9.178;2022-12-18T01:13:38;-8.30;99.90
37240;DHT22;23130;48.760;9.178;2022-12-18T01:16:05;-8.30;99.90
37240;DHT22;23130;48.760;9.178;2022-12-18T01:18:30;-8.30;99.90
37240;DHT22;23130;48.760;9.178;2022-12-18T01:20:56;-8.30;99.90
37240;DHT22;23130;48.760;9.178;2022-12-18T01:23:22;-8.40;99.90
37240;DHT22;23130;48.760;9.178;2022-12-18T01:25:48;-8.40;99.90
37240;DHT22;23130;48.760;9.178;2022-12-18T01:28:13;-8.40;99.90
37240;DHT22;23130;48.760;9.178;2022-12-18T01:30:39;-8.50;99.90
37240;DHT22;23130;48.760;9.178;2022-12-18T01:33:05;-8.50;99.90
37240;DHT22;23130;48.760;9.178;2022-12-18T01:35:31;-8.60;99.90
37240;DHT22;23130;48.760;9.178;2022-12-18T01:37:56;-8.60;99.90
37240;DHT22;23130;48.760;9.178;2022-12-18T01:40:22;-8.60;99.90
37240;DHT22;23130;48.760;9.178;2022-12-18T01:42:54;-8.60;99.90
37240;DHT22;23130;48.760;9.178;2022-12-18T01:48:00;-8.50;99.90
37240;DHT22;23130;48.760;9.178;2022-12-18T01:50:36;-8.40;99.90
37240;DHT22;23130;48.760;9.178;2022-12-18T01:53:19;-8.40;99.90
37240;DHT22;23130;48.760;9.178;2022-12-18T01:58:15;-8.30;99.90
37240;DHT22;23130;48.760;9.178;2022-12-18T02:00:41;-8.40;99.90
37240;DHT22;23130;48.760;9.178;2022-12-18T02:03:07;-8.40;99.90
37240;DHT22;23130;48.760;9.178;2022-12-18T02:08:20;-8.40;99.90
37240;DHT22;23130;48.760;9.178;2022-12-18T02:18:56;-8.20;99.90
37240;DHT22;23130;48.760;9.178;2022-12-18T02:21:45;-8.10;99.90
37240;DHT22;23130;48.760;9.178;2022-12-18T02:24:29;-8.10;99.90
37240;DHT22;23130;48.760;9.178;2022-12-18T02:26:58;-8.10;99.90
37240;DHT22;23130;48.760;9.178;2022-12-18T02:31:58;-7.90;99.90
37240;DHT22;23130;48.760;9.178;2022-12-18T02:34:28;-7.90;99.90
37240;DHT22;23130;48.760;9.178;2022-12-18T02:36:57;-8.00;99.90
37240;DHT22;23130;48.760;9.178;2022-12-18T02:39:25;-8.10;99.90
37240;DHT22;23130;48.760;9.178;2022-12-18T02:41:52;-8.20;99.90
37240;DHT22;23130;48.760;9.178;2022-12-18T02:44:18;-8.20;99.90
37240;DHT22;23130;48.760;9.178;2022-12-18T02:46:49;-8.30;99.90
37240;DHT22;23130;48.760;9.178;2022-12-18T02:49:44;-8.20;99.90
37240;DHT22;23130;48.760;9.178;2022-12-18T02:58:11;-8.20;99.90
37240;DHT22;23130;48.760;9.178;2022-12-18T03:00:48;-8.10;99.90
37240;DHT22;23130;48.760;9.178;2022-12-18T03:03:23;-8.10;99.90
37240;DHT22;23130;48.760;9.178;2022-12-18T03:05:58;-8.10;99.90
37240;DHT22;23130;48.760;9.178;2022-12-18T03:08:27;-8.20;99.90
37240;DHT22;23130;48.760;9.178;2022-12-18T03:11:00;-8.10;99.90
37240;DHT22;23130;48.760;9.178;2022-12-18T03:13:49;-8.10;99.90
37240;DHT22;23130;48.760;9.178;2022-12-18T03:16:23;-8.20;99.90
37240;DHT22;23130;48.760;9.178;2022-12-18T03:19:01;-8.20;99.90
37240;DHT22;23130;48.760;9.178;2022-12-18T03:21:32;-8.30;99.90
37240;DHT22;23130;48.760;9.178;2022-12-18T03:24:00;-8.40;99.90
37240;DHT22;23130;48.760;9.178;2022-12-18T03:26:26;-8.50;99.90
37240;DHT22;23130;48.760;9.178;2022-12-18T03:28:56;-8.50;99.90
37240;DHT22;23130;48.760;9.178;2022-12-18T03:31:26;-8.60;99.90
37240;DHT22;23130;48.760;9.178;2022-12-18T03:33:55;-8.60;99.90
37240;DHT22;23130;48.760;9.178;2022-12-18T03:36:23;-8.70;99.90
37240;DHT22;23130;48.760;9.178;2022-12-18T03:38:49;-8.70;99.90
37240;DHT22;23130;48.760;9.178;2022-12-18T03:41:42;-8.80;99.90
37240;DHT22;23130;48.760;9.178;2022-12-18T03:47:33;-8.80;99.90
37240;DHT22;23130;48.760;9.178;2022-12-18T03:49:56;-8.90;99.90
37240;DHT22;23130;48.760;9.178;2022-12-18T03:52:27;-9.00;99.90
37240;DHT22;23130;48.760;9.178;2022-12-18T03:54:56;-9.10;99.90
37240;DHT22;23130;48.760;9.178;2022-12-18T03:57:26;-9.10;99.90
37240;DHT22;23130;48.760;9.178;2022-12-18T04:00:00;-9.20;99.90
37240;DHT22;23130;48.760;9.178;2022-12-18T04:02:26;-9.20;99.90
37240;DHT22;23130;48.760;9.178;2022-12-18T04:04:57;-9.20;99.90
37240;DHT22;23130;48.760;9.178;2022-12-18T04:07:24;-9.20;99.90
37240;DHT22;23130;48.760;9.178;2022-12-18T04:09:53;-9.20;99.90
37240;DHT22;23130;48.760;9.178;2022-12-18T04:12:20;-9.20;99.90
37240;DHT22;23130;48.760;9.178;2022-12-18T04:14:45;-9.30;99.90
37240;DHT22;23130;48.760;9.178;2022-12-18T04:17:12;-9.30;99.90
37240;DHT22;23130;48.760;9.178;2022-12-18T04:19:37;-9.30;99.90
37240;DHT22;23130;48.760;9.178;2022-12-18T04:22:03;-9.40;99.90
37240;DHT22;23130;48.760;9.178;2022-12-18T04:24:29;-9.40;99.90
37240;DHT22;23130;48.760;9.178;2022-12-18T04:26:54;-9.50;99.90
37240;DHT22;23130;48.760;9.178;2022-12-18T04:29:20;-9.60;99.90
37240;DHT22;23130;48.760;9.178;2022-12-18T04:31:45;-9.70;99.90
37240;DHT22;23130;48.760;9.178;2022-12-18T04:34:11;-9.70;99.90
37240;DHT22;23130;48.760;9.178;2022-12-18T04:36:36;-9.60;99.90
37240;DHT22;23130;48.760;9.178;2022-12-18T04:39:02;-9.70;99.90
37240;DHT22;23130;48.760;9.178;2022-12-18T04:41:28;-9.70;99.90
37240;DHT22;23130;48.760;9.178;2022-12-18T04:43:53;-9.70;99.90
37240;DHT22;23130;48.760;9.178;2022-12-18T04:46:19;-9.70;99.90
37240;DHT22;23130;48.760;9.178;2022-12-18T04:48:46;-9.70;99.90
37240;DHT22;23130;48.760;9.178;2022-12-18T04:51:12;-9.80;99.90
37240;DHT22;23130;48.760;9.178;2022-12-18T04:53:37;-9.80;99.90
37240;DHT22;23130;48.760;9.178;2022-12-18T04:56:14;-9.90;99.90
37240;DHT22;23130;48.760;9.178;2022-12-18T04:58:41;-10.00;99.90
37240;DHT22;23130;48.760;9.178;2022-12-18T05:01:08;-10.10;99.90
37240;DHT22;23130;48.760;9.178;2022-12-18T05:03:35;-10.10;99.90
37240;DHT22;23130;48.760;9.178;2022-12-18T05:06:01;-10.20;99.90
37240;DHT22;23130;48.760;9.178;2022-12-18T05:08:26;-10.20;99.90
37240;DHT22;23130;48.760;9.178;2022-12-18T05:11:04;-10.20;99.90
37240;DHT22;23130;48.760;9.178;2022-12-18T05:13:29;-10.00;99.90
37240;DHT22;23130;48.760;9.178;2022-12-18T05:15:56;-9.90;99.90
37240;DHT22;23130;48.760;9.178;2022-12-18T05:18:22;-9.90;99.90
37240;DHT22;23130;48.760;9.178;2022-12-18T05:20:49;-10.00;99.90
37240;DHT22;23130;48.760;9.178;2022-12-18T05:23:15;-10.20;99.90
37240;DHT22;23130;48.760;9.178;2022-12-18T05:25:40;-10.30;99.90
37240;DHT22;23130;48.760;9.178;2022-12-18T05:28:06;-10.30;99.90
37240;DHT22;23130;48.760;9.178;2022-12-18T05:30:31;-10.50;99.90
37240;DHT22;23130;48.760;9.178;2022-12-18T05:32:57;-10.50;99.90
37240;DHT22;23130;48.760;9.178;2022-12-18T05:35:22;-10.50;99.90
37240;DHT22;23130;48.760;9.178;2022-12-18T05:37:48;-10.50;99.90
37240;DHT22;23130;48.760;9.178;2022-12-18T05:40:14;-10.40;99.90
37240;DHT22;23130;48.760;9.178;2022-12-18T05:42:39;-10.50;99.90
37240;DHT22;23130;48.760;9.178;2022-12-18T05:45:05;-10.50;99.90
37240;DHT22;23130;48.760;9.178;2022-12-18T05:47:31;-10.50;99.90
37240;DHT22;23130;48.760;9.178;2022-12-18T05:49:57;-10.60;99.90
37240;DHT22;23130;48.760;9.178;2022-12-18T05:52:22;-10.60;99.90
37240;DHT22;23130;48.760;9.178;2022-12-18T05:54:48;-10.60;99.90
37240;DHT22;23130;48.760;9.178;2022-12-18T05:57:13;-10.60;99.90
37240;DHT22;23130;48.760;9.178;2022-12-18T05:59:39;-10.60;99.90
37240;DHT22;23130;48.760;9.178;2022-12-18T06:02:04;-10.60;99.90
37240;DHT22;23130;48.760;9.178;2022-12-18T06:04:30;-10.50;99.90
37240;DHT22;23130;48.760;9.178;2022-12-18T06:06:56;-10.60;99.90
37240;DHT22;23130;48.760;9.178;2022-12-18T06:09:21;-10.60;99.90
37240;DHT22;23130;48.760;9.178;2022-12-18T06:11:47;-10.60;99.90
37240;DHT22;23130;48.760;9.178;2022-12-18T06:14:13;-10.60;99.90
37240;DHT22;23130;48.760;9.178;2022-12-18T06:16:38;-10.60;99.90
37240;DHT22;23130;48.760;9.178;2022-12-18T06:19:05;-10.60;99.90
37240;DHT22;23130;48.760;9.178;2022-12-18T06:21:31;-10.60;99.90
37240;DHT22;23130;48.760;9.178;2022-12-18T06:23:57;-10.60;99.90
37240;DHT22;23130;48.760;9.178;2022-12-18T06:26:22;-10.60;99.90
37240;DHT22;23130;48.760;9.178;2022-12-18T06:28:48;-10.60;99.90
37240;DHT22;23130;48.760;9.178;2022-12-18T06:31:13;-10.60;99.90
37240;DHT22;23130;48.760;9.178;2022-12-18T06:33:39;-10.60;99.90
37240;DHT22;23130;48.760;9.178;2022-12-18T06:36:11;-10.60;99.90
37240;DHT22;23130;48.760;9.178;2022-12-18T06:38:39;-10.60;99.90
37240;DHT22;23130;48.760;9.178;2022-12-18T06:41:12;-10.70;99.90
37240;DHT22;23130;48.760;9.178;2022-12-18T06:43:38;-10.80;99.90
37240;DHT22;23130;48.760;9.178;2022-12-18T06:46:04;-10.80;99.90
37240;DHT22;23130;48.760;9.178;2022-12-18T06:48:31;-10.80;99.90
37240;DHT22;23130;48.760;9.178;2022-12-18T06:50:57;-10.80;99.90
37240;DHT22;23130;48.760;9.178;2022-12-18T06:53:22;-10.70;99.90
37240;DHT22;23130;48.760;9.178;2022-12-18T06:55:48;-10.70;99.90
37240;DHT22;23130;48.760;9.178;2022-12-18T06:58:14;-10.70;99.90
37240;DHT22;23130;48.760;9.178;2022-12-18T07:00:40;-10.70;99.90
37240;DHT22;23130;48.760;9.178;2022-12-18T07:03:05;-10.60;99.90
37240;DHT22;23130;48.760;9.178;2022-12-18T07:05:31;-10.70;99.90
37240;DHT22;23130;48.760;9.178;2022-12-18T07:07:57;-10.60;99.90
37240;DHT22;23130;48.760;9.178;2022-12-18T07:10:23;-10.60;99.90
37240;DHT22;23130;48.760;9.178;2022-12-18T07:12:49;-10.60;99.90
37240;DHT22;23130;48.760;9.178;2022-12-18T07:15:14;-10.50;99.90
37240;DHT22;23130;48.760;9.178;2022-12-18T07:17:40;-10.40;99.90
37240;DHT22;23130;48.760;9.178;2022-12-18T07:20:06;-10.20;99.90
37240;DHT22;23130;48.760;9.178;2022-12-18T07:22:31;-10.20;99.90
37240;DHT22;23130;48.760;9.178;2022-12-18T07:24:57;-10.20;99.90
37240;DHT22;23130;48.760;9.178;2022-12-18T07:27:23;-10.00;99.90
37240;DHT22;23130;48.760;9.178;2022-12-18T07:29:48;-9.90;99.90
37240;DHT22;23130;48.760;9.178;2022-12-18T07:32:14;-9.80;99.90
37240;DHT22;23130;48.760;9.178;2022-12-18T07:34:39;-9.80;99.90
37240;DHT22;23130;48.760;9.178;2022-12-18T07:37:05;-9.70;99.90
37240;DHT22;23130;48.760;9.178;2022-12-18T07:39:31;-9.70;99.90
37240;DHT22;23130;48.760;9.178;2022-12-18T07:41:56;-9.60;99.90
37240;DHT22;23130;48.760;9.178;2022-12-18T07:44:40;-9.60;99.90
37240;DHT22;23130;48.760;9.178;2022-12-18T07:47:06;-9.60;99.90
37240;DHT22;23130;48.760;9.178;2022-12-18T07:49:32;-9.60;99.90
37240;DHT22;23130;48.760;9.178;2022-12-18T07:51:58;-9.60;99.90
37240;DHT22;23130;48.760;9.178;2022-12-18T07:54:24;-9.60;99.90
37240;DHT22;23130;48.760;9.178;2022-12-18T07:56:51;-9.60;99.90
37240;DHT22;23130;48.760;9.178;2022-12-18T07:59:17;-9.60;99.90
37240;DHT22;23130;48.760;9.178;2022-12-18T08:01:43;-9.60;99.90
37240;DHT22;23130;48.760;9.178;2022-12-18T08:04:08;-9.60;99.90
37240;DHT22;23130;48.760;9.178;2022-12-18T08:06:34;-9.60;99.90
37240;DHT22;23130;48.760;9.178;2022-12-18T08:09:00;-9.60;99.90
37240;DHT22;23130;48.760;9.178;2022-12-18T08:11:27;-9.50;99.90
37240;DHT22;23130;48.760;9.178;2022-12-18T08:13:53;-9.50;99.90
37240;DHT22;23130;48.760;9.178;2022-12-18T08:16:20;-9.30;99.90
37240;DHT22;23130;48.760;9.178;2022-12-18T08:18:46;-9.30;99.90
37240;DHT22;23130;48.760;9.178;2022-12-18T08:21:17;-9.20;99.90
37240;DHT22;23130;48.760;9.178;2022-12-18T08:23:43;-9.10;99.90
37240;DHT22;23130;48.760;9.178;2022-12-18T08:26:13;-9.10;99.90
37240;DHT22;23130;48.760;9.178;2022-12-18T08:28:39;-9.00;99.90
37240;DHT22;23130;48.760;9.178;2022-12-18T08:31:06;-8.90;99.90
37240;DHT22;23130;48.760;9.178;2022-12-18T08:33:33;-8.90;99.90
37240;DHT22;23130;48.760;9.178;2022-12-18T08:35:59;-8.80;99.90
37240;DHT22;23130;48.760;9.178;2022-12-18T08:38:25;-8.80;99.90
37240;DHT22;23130;48.760;9.178;2022-12-18T08:40:58;-8.70;99.90
37240;DHT22;23130;48.760;9.178;2022-12-18T08:43:24;-8.70;99.90
37240;DHT22;23130;48.760;9.178;2022-12-18T08:46:09;-8.60;99.90
37240;DHT22;23130;48.760;9.178;2022-12-18T08:48:34;-8.50;99.90
37240;DHT22;23130;48.760;9.178;2022-12-18T08:51:00;-8.50;99.90
37240;DHT22;23130;48.760;9.178;2022-12-18T08:53:26;-8.40;99.90
37240;DHT22;23130;48.760;9.178;2022-12-18T08:55:52;-8.40;99.90
37240;DHT22;23130;48.760;9.178;2022-12-18T08:58:19;-8.40;99.90
37240;DHT22;23130;48.760;9.178;2022-12-18T09:00:45;-8.30;99.90
37240;DHT22;23130;48.760;9.178;2022-12-18T09:03:15;-8.30;99.90
37240;DHT22;23130;48.760;9.178;2022-12-18T09:05:42;-8.20;99.90
37240;DHT22;23130;48.760;9.178;2022-12-18T09:08:08;-8.10;99.90
37240;DHT22;23130;48.760;9.178;2022-12-18T09:10:46;-8.00;99.90
37240;DHT22;23130;48.760;9.178;2022-12-18T09:13:14;-7.90;99.90
37240;DHT22;23130;48.760;9.178;2022-12-18T09:15:45;-7.90;99.90
37240;DHT22;23130;48.760;9.178;2022-12-18T09:18:13;-7.80;99.90
37240;DHT22;23130;48.760;9.178;2022-12-18T09:20:39;-7.70;99.90
37240;DHT22;23130;48.760;9.178;2022-12-18T09:23:06;-7.70;99.90
37240;DHT22;23130;48.760;9.178;2022-12-18T09:25:32;-7.60;99.90
37240;DHT22;23130;48.760;9.178;2022-12-18T09:28:00;-7.60;99.90
37240;DHT22;23130;48.760;9.178;2022-12-18T09:30:26;-7.50;99.90
37240;DHT22;23130;48.760;9.178;2022-12-18T09:32:52;-7.50;99.90
37240;DHT22;23130;48.760;9.178;2022-12-18T09:35:18;-7.40;99.90
37240;DHT22;23130;48.760;9.178;2022-12-18T09:37:44;-7.40;99.90
37240;DHT22;23130;48.760;9.178;2022-12-18T09:40:15;-7.30;99.90
37240;DHT22;23130;48.760;9.178;2022-12-18T09:42:45;-7.30;99.90
37240;DHT22;23130;48.760;9.178;2022-12-18T09:45:15;-7.20;99.90
37240;DHT22;23130;48.760;9.178;2022-12-18T09:47:42;-7.20;99.90
37240;DHT22;23130;48.760;9.178;2022-12-18T09:50:35;-7.10;99.90
37240;DHT22;23130;48.760;9.178;2022-12-18T09:53:12;-7.10;99.90
37240;DHT22;23130;48.760;9.178;2022-12-18T09:55:45;-7.00;99.90
37240;DHT22;23130;48.760;9.178;2022-12-18T09:58:26;-6.90;99.90
37240;DHT22;23130;48.760;9.178;2022-12-18T10:00:54;-6.90;99.90
37240;DHT22;23130;48.760;9.178;2022-12-18T10:03:20;-6.90;99.90
37240;DHT22;23130;48.760;9.178;2022-12-18T10:06:05;-6.80;99.90
37240;DHT22;23130;48.760;9.178;2022-12-18T10:12:12;-6.70;99.90
37240;DHT22;23130;48.760;9.178;2022-12-18T10:24:53;-6.20;99.90
37240;DHT22;23130;48.760;9.178;2022-12-18T10:27:25;-6.10;99.90
37240;DHT22;23130;48.760;9.178;2022-12-18T10:29:54;-5.90;99.90
37240;DHT22;23130;48.760;9.178;2022-12-18T10:32:23;-5.90;99.90
37240;DHT22;23130;48.760;9.178;2022-12-18T10:34:51;-5.80;99.90
37240;DHT22;23130;48.760;9.178;2022-12-18T10:37:20;-5.70;99.90
37240;DHT22;23130;48.760;9.178;2022-12-18T10:40:14;-5.60;99.90
37240;DHT22;23130;48.760;9.178;2022-12-18T10:42:43;-5.50;99.90
37240;DHT22;23130;48.760;9.178;2022-12-18T10:45:15;-5.40;99.90
37240;DHT22;23130;48.760;9.178;2022-12-18T10:47:46;-5.40;99.90
37240;DHT22;23130;48.760;9.178;2022-12-18T10:50:30;-5.20;99.90
37240;DHT22;23130;48.760;9.178;2022-12-18T10:52:59;-5.10;99.90
37240;DHT22;23130;48.760;9.178;2022-12-18T10:55:32;-5.00;99.90
37240;DHT22;23130;48.760;9.178;2022-12-18T11:03:42;-4.50;99.90
37240;DHT22;23130;48.760;9.178;2022-12-18T11:06:12;-4.40;99.90
37240;DHT22;23130;48.760;9.178;2022-12-18T11:08:38;-4.20;99.90
37240;DHT22;23130;48.760;9.178;2022-12-18T11:11:28;-4.00;99.90
37240;DHT22;23130;48.760;9.178;2022-12-18T11:14:12;-3.90;99.90
37240;DHT22;23130;48.760;9.178;2022-12-18T11:16:46;-3.80;99.90
37240;DHT22;23130;48.760;9.178;2022-12-18T11:19:34;-3.70;99.90
37240;DHT22;23130;48.760;9.178;2022-12-18T11:22:03;-3.50;99.90
37240;DHT22;23130;48.760;9.178;2022-12-18T11:24:43;-3.40;99.90
37240;DHT22;23130;48.760;9.178;2022-12-18T11:27:16;-3.20;99.90
37240;DHT22;23130;48.760;9.178;2022-12-18T11:29:44;-3.10;99.90
37240;DHT22;23130;48.760;9.178;2022-12-18T11:32:31;-3.00;99.90
37240;DHT22;23130;48.760;9.178;2022-12-18T11:35:20;-2.90;99.90
37240;DHT22;23130;48.760;9.178;2022-12-18T11:37:56;-2.80;99.90
37240;DHT22;23130;48.760;9.178;2022-12-18T11:40:33;-3.00;99.90
37240;DHT22;23130;48.760;9.178;2022-12-18T11:43:21;-2.90;99.90
37240;DHT22;23130;48.760;9.178;2022-12-18T11:45:59;-3.00;99.90
37240;DHT22;23130;48.760;9.178;2022-12-18T11:48:32;-3.00;99.90
37240;DHT22;23130;48.760;9.178;2022-12-18T11:51:02;-3.00;99.90
37240;DHT22;23130;48.760;9.178;2022-12-18T11:53:30;-3.00;99.90
37240;DHT22;23130;48.760;9.178;2022-12-18T11:56:07;-3.10;99.90
37240;DHT22;23130;48.760;9.178;2022-12-18T11:58:52;-3.00;99.90
37240;DHT22;23130;48.760;9.178;2022-12-18T12:15:13;-3.10;99.90
37240;DHT22;23130;48.760;9.178;2022-12-18T12:20:15;-3.00;99.90
37240;DHT22;23130;48.760;9.178;2022-12-18T12:25:18;-3.00;99.90
37240;DHT22;23130;48.760;9.178;2022-12-18T12:33:51;-3.00;99.90
37240;DHT22;23130;48.760;9.178;2022-12-18T12:36:40;-3.00;99.90
37240;DHT22;23130;48.760;9.178;2022-12-18T12:39:16;-3.00;99.90
37240;DHT22;23130;48.760;9.178;2022-12-18T12:41:44;-2.90;99.90
37240;DHT22;23130;48.760;9.178;2022-12-18T12:44:34;-2.80;99.90
37240;DHT22;23130;48.760;9.178;2022-12-18T12:47:18;-2.80;99.90
37240;DHT22;23130;48.760;9.178;2022-12-18T12:49:46;-2.70;99.90
37240;DHT22;23130;48.760;9.178;2022-12-18T12:52:26;-2.70;99.90
37240;DHT22;23130;48.760;9.178;2022-12-18T12:54:54;-2.60;99.90
37240;DHT22;23130;48.760;9.178;2022-12-18T12:57:39;-2.50;99.90
37240;DHT22;23130;48.760;9.178;2022-12-18T13:00:13;-2.40;99.90
37240;DHT22;23130;48.760;9.178;2022-12-18T13:02:51;-2.30;99.90
37240;DHT22;23130;48.760;9.178;2022-12-18T13:07:52;-2.10;99.90
37240;DHT22;23130;48.760;9.178;2022-12-18T13:13:09;-2.00;99.90
37240;DHT22;23130;48.760;9.178;2022-12-18T13:15:43;-1.90;99.90
37240;DHT22;23130;48.760;9.178;2022-12-18T13:18:11;-1.80;99.90
37240;DHT22;23130;48.760;9.178;2022-12-18T13:20:46;-1.80;99.90
37240;DHT22;23130;48.760;9.178;2022-12-18T13:25:57;-1.60;99.90
37240;DHT22;23130;48.760;9.178;2022-12-18T13:30:59;-1.60;99.90
37240;DHT22;23130;48.760;9.178;2022-12-18T13:38:42;-1.40;99.90
37240;DHT22;23130;48.760;9.178;2022-12-18T13:43:54;-1.50;99.90
37240;DHT22;23130;48.760;9.178;2022-12-18T13:46:30;-1.50;99.90
37240;DHT22;23130;48.760;9.178;2022-12-18T13:51:32;-1.50;99.90
37240;DHT22;23130;48.760;9.178;2022-12-18T13:54:00;-1.50;99.90
37240;DHT22;23130;48.760;9.178;2022-12-18T13:56:32;-1.50;99.90
37240;DHT22;23130;48.760;9.178;2022-12-18T14:01:50;-1.60;99.90
37240;DHT22;23130;48.760;9.178;2022-12-18T14:04:29;-1.70;99.90
37240;DHT22;23130;48.760;9.178;2022-12-18T14:06:58;-1.70;99.90
37240;DHT22;23130;48.760;9.178;2022-12-18T14:09:31;-1.80;99.90
37240;DHT22;23130;48.760;9.178;2022-12-18T14:12:00;-1.90;99.90
37240;DHT22;23130;48.760;9.178;2022-12-18T14:14:48;-2.00;99.90
37240;DHT22;23130;48.760;9.178;2022-12-18T14:17:15;-2.10;99.90
37240;DHT22;23130;48.760;9.178;2022-12-18T14:19:50;-2.10;99.90
37240;DHT22;23130;48.760;9.178;2022-12-18T14:22:20;-2.20;99.90
37240;DHT22;23130;48.760;9.178;2022-12-18T14:24:46;-2.30;99.90
37240;DHT22;23130;48.760;9.178;2022-12-18T14:27:24;-2.40;99.90
37240;DHT22;23130;48.760;9.178;2022-12-18T14:29:51;-2.50;99.90
37240;DHT22;23130;48.760;9.178;2022-12-18T14:32:19;-2.60;99.90
37240;DHT22;23130;48.760;9.178;2022-12-18T14:34:51;-2.70;99.90
37240;DHT22;23130;48.760;9.178;2022-12-18T14:37:24;-2.80;99.90
37240;DHT22;23130;48.760;9.178;2022-12-18T14:39:57;-2.90;99.90
37240;DHT22;23130;48.760;9.178;2022-12-18T14:42:25;-2.90;99.90
37240;DHT22;23130;48.760;9.178;2022-12-18T14:47:58;-3.10;99.90
37240;DHT22;23130;48.760;9.178;2022-12-18T14:50:25;-3.20;99.90
37240;DHT22;23130;48.760;9.178;2022-12-18T14:52:52;-3.30;99.90
37240;DHT22;23130;48.760;9.178;2022-12-18T14:55:20;-3.40;99.90
37240;DHT22;23130;48.760;9.178;2022-12-18T14:57:52;-3.50;99.90
37240;DHT22;23130;48.760;9.178;2022-12-18T15:00:20;-3.60;99.90
37240;DHT22;23130;48.760;9.178;2022-12-18T15:02:50;-3.70;99.90
37240;DHT22;23130;48.760;9.178;2022-12-18T15:05:24;-3.80;99.90
37240;DHT22;23130;48.760;9.178;2022-12-18T15:07:55;-3.90;99.90
37240;DHT22;23130;48.760;9.178;2022-12-18T15:10:31;-4.00;99.90
37240;DHT22;23130;48.760;9.178;2022-12-18T15:23:14;-4.40;99.90
37240;DHT22;23130;48.760;9.178;2022-12-18T15:25:44;-4.50;99.90
37240;DHT22;23130;48.760;9.178;2022-12-18T15:28:34;-4.50;99.90
37240;DHT22;23130;48.760;9.178;2022-12-18T15:33:33;-4.60;99.90
37240;DHT22;23130;48.760;9.178;2022-12-18T15:36:07;-4.50;99.90
37240;DHT22;23130;48.760;9.178;2022-12-18T15:38:34;-4.60;99.90
37240;DHT22;23130;48.760;9.178;2022-12-18T15:41:02;-4.60;99.90
37240;DHT22;23130;48.760;9.178;2022-12-18T15:43:28;-4.70;99.90
37240;DHT22;23130;48.760;9.178;2022-12-18T15:46:13;-4.80;99.90
37240;DHT22;23130;48.760;9.178;2022-12-18T15:48:41;-4.80;99.90
37240;DHT22;23130;48.760;9.178;2022-12-18T15:51:27;-4.80;99.90
37240;DHT22;23130;48.760;9.178;2022-12-18T15:53:55;-4.80;99.90
37240;DHT22;23130;48.760;9.178;2022-12-18T15:56:22;-4.90;99.90
37240;DHT22;23130;48.760;9.178;2022-12-18T15:59:15;-4.90;99.90
37240;DHT22;23130;48.760;9.178;2022-12-18T16:01:43;-5.00;99.90
37240;DHT22;23130;48.760;9.178;2022-12-18T16:04:14;-4.90;99.90
37240;DHT22;23130;48.760;9.178;2022-12-18T16:06:40;-5.00;99.90
37240;DHT22;23130;48.760;9.178;2022-12-18T16:09:07;-5.00;99.90
37240;DHT22;23130;48.760;9.178;2022-12-18T16:11:35;-5.00;99.90
37240;DHT22;23130;48.760;9.178;2022-12-18T16:16:31;-5.00;99.90
37240;DHT22;23130;48.760;9.178;2022-12-18T16:18:57;-5.10;99.90
37240;DHT22;23130;48.760;9.178;2022-12-18T16:21:22;-5.10;99.90
37240;DHT22;23130;48.760;9.178;2022-12-18T16:23:48;-5.10;99.90
37240;DHT22;23130;48.760;9.178;2022-12-18T16:26:13;-5.00;99.90
37240;DHT22;23130;48.760;9.178;2022-12-18T16:28:39;-5.10;99.90
37240;DHT22;23130;48.760;9.178;2022-12-18T16:31:05;-5.00;99.90
37240;DHT22;23130;48.760;9.178;2022-12-18T16:33:30;-5.00;99.90
37240;DHT22;23130;48.760;9.178;2022-12-18T16:35:56;-5.00;99.90
37240;DHT22;23130;48.760;9.178;2022-12-18T16:38:21;-5.00;99.90
37240;DHT22;23130;48.760;9.178;2022-12-18T16:40:47;-5.00;99.90
37240;DHT22;23130;48.760;9.178;2022-12-18T16:43:31;-5.00;99.90
37240;DHT22;23130;48.760;9.178;2022-12-18T16:45:58;-4.90;99.90
37240;DHT22;23130;48.760;9.178;2022-12-18T16:48:24;-4.90;99.90
37240;DHT22;23130;48.760;9.178;2022-12-18T16:50:50;-4.90;99.90
37240;DHT22;23130;48.760;9.178;2022-12-18T16:53:24;-4.90;99.90
37240;DHT22;23130;48.760;9.178;2022-12-18T16:55:54;-4.80;99.90
37240;DHT22;23130;48.760;9.178;2022-12-18T16:58:20;-4.70;99.90
37240;DHT22;23130;48.760;9.178;2022-12-18T17:00:46;-4.80;99.90
37240;DHT22;23130;48.760;9.178;2022-12-18T17:03:11;-4.80;99.90
37240;DHT22;23130;48.760;9.178;2022-12-18T17:05:37;-4.70;99.90
37240;DHT22;23130;48.760;9.178;2022-12-18T17:08:02;-4.70;99.90
37240;DHT22;23130;48.760;9.178;2022-12-18T17:10:28;-4.60;99.90
37240;DHT22;23130;48.760;9.178;2022-12-18T17:12:53;-4.60;99.90
37240;DHT22;23130;48.760;9.178;2022-12-18T17:15:19;-4.50;99.90
37240;DHT22;23130;48.760;9.178;2022-12-18T17:17:45;-4.50;99.90
37240;DHT22;23130;48.760;9.178;2022-12-18T17:20:11;-4.50;99.90
37240;DHT22;23130;48.760;9.178;2022-12-18T17:22:38;-4.40;99.90
37240;DHT22;23130;48.760;9.178;2022-12-18T17:25:05;-4.40;99.90
37240;DHT22;23130;48.760;9.178;2022-12-18T17:27:31;-4.30;99.90
37240;DHT22;23130;48.760;9.178;2022-12-18T17:29:57;-4.20;99.90
37240;DHT22;23130;48.760;9.178;2022-12-18T17:32:23;-4.20;99.90
37240;DHT22;23130;48.760;9.178;2022-12-18T17:34:49;-4.20;99.90
37240;DHT22;23130;48.760;9.178;2022-12-18T17:37:15;-4.10;99.90